createdAt,value
2023-04-12T00:00:04.332Z,2.55
2023-04-12T00:02:07.825Z,1.40
2023-04-12T00:04:14.644Z,1.20
2023-04-12T00:06:18.400Z,0.77
2023-04-12T00:08:24.829Z,1.50
2023-04-12T00:10:28.158Z,0.90
2023-04-12T00:12:33.185Z,1.75
2023-04-12T00:14:36.478Z,1.08
2023-04-12T00:16:40.335Z,1.10
2023-04-12T00:18:46.233Z,1.48
2023-04-12T00:20:49.741Z,1.45
2023-04-12T00:22:54.342Z,1.70
2023-04-12T00:24:57.650Z,1.10
2023-04-12T00:27:02.364Z,1.40
2023-04-12T00:29:07.108Z,0.90
2023-04-12T00:31:11.772Z,1.70
2023-04-12T00:33:15.135Z,1.40
2023-04-12T00:35:18.699Z,1.10
2023-04-12T00:37:22.293Z,0.90
2023-04-12T00:39:25.580Z,0.98
2023-04-12T00:41:29.139Z,0.80
2023-04-12T00:43:32.942Z,0.90
2023-04-12T00:45:38.675Z,1.10
2023-04-12T00:47:43.673Z,0.90
2023-04-12T00:49:47.191Z,0.85
2023-04-12T00:51:51.485Z,1.00
2023-04-12T00:53:57.655Z,1.70
2023-04-12T00:56:01.812Z,1.10
2023-04-12T00:58:06.000Z,1.10
2023-04-12T01:00:12.775Z,1.48
2023-04-12T01:02:18.112Z,0.90
2023-04-12T01:04:22.835Z,1.05
2023-04-12T01:06:36.977Z,1.10
2023-04-12T01:08:51.312Z,0.93
2023-04-12T01:11:05.854Z,1.30
2023-04-12T01:13:19.998Z,1.00
2023-04-12T01:15:24.534Z,1.05
2023-04-12T01:17:32.261Z,0.82
2023-04-12T01:19:54.333Z,1.10
2023-04-12T01:22:13.582Z,0.98
2023-04-12T01:24:29.158Z,1.20
2023-04-12T01:26:38.009Z,0.82
2023-04-12T01:28:44.795Z,1.25
2023-04-12T01:30:49.479Z,0.75
2023-04-12T01:32:53.740Z,0.85
2023-04-12T01:34:58.648Z,1.20
2023-04-12T01:37:04.468Z,1.05
2023-04-12T01:39:09.221Z,1.17
2023-04-12T01:41:13.356Z,0.85
2023-04-12T01:43:16.727Z,0.85
2023-04-12T01:45:22.016Z,0.85
2023-04-12T01:47:25.898Z,1.30
2023-04-12T01:49:37.720Z,1.10
2023-04-12T01:51:49.460Z,0.90
2023-04-12T01:53:59.366Z,0.77
2023-04-12T01:56:09.103Z,0.90
2023-04-12T01:58:13.406Z,0.70
2023-04-12T02:00:18.787Z,0.80
2023-04-12T02:02:23.757Z,1.00
2023-04-12T02:04:28.826Z,0.80
2023-04-12T02:06:34.584Z,0.73
2023-04-12T02:08:38.199Z,0.70
2023-04-12T02:10:41.753Z,0.70
2023-04-12T02:12:45.032Z,0.60
2023-04-12T02:14:52.333Z,1.00
2023-04-12T02:16:58.531Z,0.93
2023-04-12T02:19:04.226Z,0.88
2023-04-12T02:21:08.242Z,1.00
2023-04-12T02:23:11.540Z,0.90
2023-04-12T02:25:15.569Z,1.00
2023-04-12T02:27:19.187Z,0.98
2023-04-12T02:29:24.266Z,0.95
2023-04-12T02:31:28.109Z,0.70
2023-04-12T02:33:31.558Z,0.88
2023-04-12T02:35:36.623Z,0.75
2023-04-12T02:37:41.039Z,0.63
2023-04-12T02:39:44.745Z,0.80
2023-04-12T02:41:48.196Z,0.68
2023-04-12T02:43:51.992Z,0.70
2023-04-12T02:45:55.612Z,0.90
2023-04-12T02:47:59.097Z,0.68
2023-04-12T02:50:02.858Z,0.90
2023-04-12T02:52:08.034Z,0.95
2023-04-12T02:54:11.622Z,0.80
2023-04-12T02:56:15.776Z,1.35
2023-04-12T02:58:19.229Z,0.80
2023-04-12T03:00:23.241Z,1.05
2023-04-12T03:02:26.857Z,0.65
2023-04-12T03:04:31.245Z,0.85
2023-04-12T03:06:35.255Z,1.05
2023-04-12T03:08:40.022Z,0.82
2023-04-12T03:10:43.467Z,0.82
2023-04-12T03:12:46.935Z,0.80
2023-04-12T03:14:50.417Z,0.65
2023-04-12T03:16:53.976Z,0.75
2023-04-12T03:18:58.020Z,1.02
2023-04-12T03:21:02.532Z,0.82
2023-04-12T03:23:06.180Z,0.95
2023-04-12T03:25:14.898Z,1.00
2023-04-12T03:27:18.344Z,1.15
2023-04-12T03:29:22.210Z,1.58
2023-04-12T03:31:27.366Z,1.25
2023-04-12T03:33:31.055Z,1.30
2023-04-12T03:35:34.454Z,1.70
2023-04-12T03:37:38.435Z,1.65
2023-04-12T03:39:42.142Z,1.45
2023-04-12T03:41:47.051Z,1.20
2023-04-12T03:43:50.824Z,1.10
2023-04-12T03:45:54.301Z,1.20
2023-04-12T03:47:57.800Z,0.80
2023-04-12T03:52:14.175Z,1.20
2023-04-12T03:54:18.279Z,1.08
2023-04-12T03:56:21.980Z,0.90
2023-04-12T03:58:27.847Z,0.80
2023-04-12T04:00:33.367Z,0.80
2023-04-12T04:02:37.100Z,1.10
2023-04-12T04:04:40.750Z,1.13
2023-04-12T04:06:44.401Z,1.50
2023-04-12T04:08:47.858Z,0.98
2023-04-12T04:10:51.471Z,1.08
2023-04-12T04:12:55.051Z,1.17
2023-04-12T04:15:00.180Z,1.00
2023-04-12T04:17:04.036Z,0.80
2023-04-12T04:19:07.486Z,0.90
2023-04-12T04:21:11.002Z,1.05
2023-04-12T04:23:14.571Z,1.17
2023-04-12T04:25:17.961Z,0.80
2023-04-12T04:27:22.316Z,1.00
2023-04-12T04:29:28.128Z,1.45
2023-04-12T04:31:36.610Z,1.00
2023-04-12T04:33:42.182Z,0.82
2023-04-12T04:35:45.715Z,0.90
2023-04-12T04:37:49.377Z,1.23
2023-04-12T04:39:53.082Z,1.25
2023-04-12T04:41:57.561Z,0.80
2023-04-12T04:44:01.477Z,1.05
2023-04-12T04:46:04.938Z,0.85
2023-04-12T04:48:09.850Z,1.10
2023-04-12T04:50:13.517Z,0.88
2023-04-12T04:52:17.017Z,2.15
2023-04-12T04:54:20.669Z,1.75
2023-04-12T04:56:25.235Z,2.42
2023-04-12T04:58:29.136Z,2.58
2023-04-12T05:00:32.630Z,2.70
2023-04-12T05:02:37.090Z,2.55
2023-04-12T05:04:42.006Z,3.42
2023-04-12T05:06:45.289Z,2.47
2023-04-12T05:08:48.593Z,2.92
2023-04-12T05:10:53.010Z,6.20
2023-04-12T05:12:56.493Z,3.55
2023-04-12T05:17:07.504Z,4.47
2023-04-12T05:19:10.974Z,2.10
2023-04-12T05:21:15.797Z,1.75
2023-04-12T05:23:19.424Z,2.30
2023-04-12T05:25:22.860Z,2.50
2023-04-12T05:27:27.992Z,2.40
2023-04-12T05:29:31.505Z,3.80
2023-04-12T05:31:35.102Z,2.65
2023-04-12T05:33:38.576Z,3.28
2023-04-12T05:35:41.906Z,2.42
2023-04-12T05:37:46.796Z,2.35
2023-04-12T05:39:50.195Z,2.72
2023-04-12T05:41:53.608Z,2.92
2023-04-12T05:43:57.075Z,3.22
2023-04-12T05:46:00.895Z,2.60
2023-04-12T05:48:04.950Z,2.20
2023-04-12T05:50:09.334Z,2.50
2023-04-12T05:52:12.822Z,1.70
2023-04-12T05:54:21.132Z,2.78
2023-04-12T05:56:24.534Z,1.83
2023-04-12T05:58:27.945Z,2.07
2023-04-12T06:00:31.535Z,2.27
2023-04-12T06:02:35.422Z,1.63
2023-04-12T06:04:50.380Z,1.80
2023-04-12T06:06:56.283Z,1.77
2023-04-12T06:09:01.507Z,1.63
2023-04-12T06:11:08.130Z,1.80
2023-04-12T06:13:11.536Z,2.60
2023-04-12T06:15:14.964Z,1.80
2023-04-12T06:17:18.304Z,1.70
2023-04-12T06:19:21.704Z,1.63
2023-04-12T06:21:25.893Z,1.60
2023-04-12T06:23:29.187Z,1.90
2023-04-12T06:25:32.703Z,1.53
2023-04-12T06:27:37.402Z,2.40
2023-04-12T06:29:40.984Z,1.50
2023-04-12T06:31:44.718Z,1.00
2023-04-12T06:33:48.720Z,1.83
2023-04-12T06:35:52.361Z,1.47
2023-04-12T06:37:56.013Z,1.70
2023-04-12T06:39:59.519Z,2.13
2023-04-12T06:42:03.006Z,1.00
2023-04-12T06:44:08.525Z,2.50
2023-04-12T06:46:11.816Z,1.93
2023-04-12T06:48:15.335Z,1.70
2023-04-12T06:50:18.986Z,1.37
2023-04-12T06:52:25.895Z,0.97
2023-04-12T06:54:29.300Z,1.17
2023-04-12T06:56:32.768Z,1.53
2023-04-12T06:58:36.265Z,1.20
2023-04-12T07:00:41.437Z,0.87
2023-04-12T07:02:44.879Z,0.80
2023-04-12T07:04:48.577Z,0.60
2023-04-12T07:06:51.989Z,1.10
2023-04-12T07:08:55.566Z,0.83
2023-04-12T07:11:03.653Z,1.30
2023-04-12T07:13:12.527Z,1.10
2023-04-12T07:15:16.114Z,1.03
2023-04-12T07:17:21.830Z,1.10
2023-04-12T07:19:25.401Z,0.80
2023-04-12T07:21:28.846Z,0.97
2023-04-12T07:23:32.240Z,1.00
2023-04-12T07:25:39.118Z,1.00
2023-04-12T07:27:42.502Z,0.63
2023-04-12T07:29:45.798Z,1.00
2023-04-12T07:31:49.228Z,0.80
2023-04-12T07:33:54.016Z,0.97
2023-04-12T07:35:57.448Z,0.67
2023-04-12T07:38:01.332Z,0.87
2023-04-12T07:40:08.045Z,0.70
2023-04-12T07:42:11.487Z,0.83
2023-04-12T07:44:15.001Z,0.80
2023-04-12T07:46:18.404Z,0.73
2023-04-12T07:48:21.797Z,0.90
2023-04-12T07:50:26.678Z,0.73
2023-04-12T07:52:32.290Z,0.80
2023-04-12T07:54:35.616Z,1.13
2023-04-12T07:56:38.879Z,2.00
2023-04-12T07:58:42.406Z,0.90
2023-04-12T08:00:46.247Z,1.00
2023-04-12T08:02:49.598Z,1.03
2023-04-12T08:04:53.191Z,0.80
2023-04-12T08:06:57.853Z,0.90
2023-04-12T08:09:01.284Z,0.90
2023-04-12T08:11:06.354Z,0.73
2023-04-12T08:13:09.740Z,0.70
2023-04-12T08:15:13.736Z,0.73
2023-04-12T08:17:17.196Z,0.87
2023-04-12T08:19:22.573Z,0.90
2023-04-12T08:21:27.409Z,1.07
2023-04-12T08:23:32.338Z,0.90
2023-04-12T08:25:35.881Z,0.60
2023-04-12T08:27:43.544Z,0.90
2023-04-12T08:29:46.892Z,0.80
2023-04-12T08:31:50.366Z,0.80
2023-04-12T08:33:53.883Z,0.90
2023-04-12T08:35:57.397Z,0.70
2023-04-12T08:38:07.389Z,1.00
2023-04-12T08:40:12.476Z,0.70
2023-04-12T08:42:17.023Z,1.00
2023-04-12T08:44:21.514Z,1.00
2023-04-12T08:46:25.960Z,1.20
2023-04-12T08:48:29.780Z,0.70
2023-04-12T08:50:33.491Z,0.80
2023-04-12T08:52:37.988Z,1.00
2023-04-12T08:54:41.345Z,0.93
2023-04-12T08:56:49.884Z,0.90
2023-04-12T08:58:55.105Z,1.30
2023-04-12T09:00:58.904Z,1.10
2023-04-12T09:03:02.527Z,1.73
2023-04-12T09:05:09.833Z,1.00
2023-04-12T09:07:13.282Z,1.30
2023-04-12T09:09:16.780Z,1.07
2023-04-12T09:11:24.840Z,0.80
2023-04-12T09:13:37.147Z,0.80
2023-04-12T09:15:50.789Z,0.80
2023-04-12T09:18:06.153Z,1.00
2023-04-12T09:20:27.608Z,1.00
2023-04-12T09:22:44.540Z,1.10
2023-04-12T09:24:49.889Z,0.83
2023-04-12T09:27:04.042Z,0.70
2023-04-12T09:29:23.893Z,1.03
2023-04-12T09:31:27.413Z,0.80
2023-04-12T09:33:39.046Z,0.90
2023-04-12T09:35:43.365Z,1.10
2023-04-12T09:37:46.691Z,0.77
2023-04-12T09:39:59.781Z,1.10
2023-04-12T09:42:14.891Z,1.00
2023-04-12T09:44:31.262Z,1.27
2023-04-12T09:46:35.408Z,0.87
2023-04-12T09:48:39.963Z,1.00
2023-04-12T09:50:45.123Z,1.30
2023-04-12T09:52:48.395Z,1.20
2023-04-12T09:54:53.061Z,1.10
2023-04-12T09:56:57.021Z,0.83
2023-04-12T09:59:04.132Z,1.10
2023-04-12T10:01:11.826Z,1.20
2023-04-12T10:03:15.635Z,1.07
2023-04-12T10:05:21.250Z,1.13
2023-04-12T10:07:25.557Z,1.20
2023-04-12T10:09:29.652Z,1.40
2023-04-12T10:11:35.196Z,1.13
2023-04-12T10:13:39.050Z,1.60
2023-04-12T10:15:43.538Z,1.03
2023-04-12T10:17:50.708Z,1.20
2023-04-12T10:19:54.835Z,1.13
2023-04-12T10:21:58.890Z,1.10
2023-04-12T10:24:02.522Z,1.47
2023-04-12T10:26:06.794Z,1.33
2023-04-12T10:28:17.576Z,1.60
2023-04-12T10:30:26.022Z,1.10
2023-04-12T10:32:29.397Z,1.30
2023-04-12T10:34:34.470Z,1.10
2023-04-12T10:36:54.225Z,1.30
2023-04-12T10:39:11.459Z,1.10
2023-04-12T10:41:17.085Z,1.63
2023-04-12T10:43:27.622Z,1.50
2023-04-12T10:45:38.392Z,1.40
2023-04-12T10:48:01.804Z,1.57
2023-04-12T10:50:27.011Z,1.67
2023-04-12T10:52:30.481Z,1.50
2023-04-12T10:54:36.405Z,1.33
2023-04-12T10:56:41.242Z,1.37
2023-04-12T10:58:58.856Z,1.70
2023-04-12T11:01:12.012Z,1.43
2023-04-12T11:03:15.923Z,1.77
2023-04-12T11:05:20.085Z,1.60
2023-04-12T11:07:25.284Z,1.53
2023-04-12T11:09:30.791Z,1.60
2023-04-12T11:11:36.513Z,1.60
2023-04-12T11:13:41.170Z,1.47
2023-04-12T11:15:45.090Z,1.60
2023-04-12T11:17:55.822Z,1.47
2023-04-12T11:20:00.937Z,1.57
2023-04-12T11:22:05.551Z,1.60
2023-04-12T11:24:10.528Z,1.50
2023-04-12T11:26:14.035Z,1.40
2023-04-12T11:28:28.476Z,1.67
2023-04-12T11:30:32.489Z,1.50
2023-04-12T11:32:36.053Z,1.93
2023-04-12T11:34:39.336Z,1.30
2023-04-12T11:36:43.120Z,1.50
2023-04-12T11:38:49.877Z,1.20
2023-04-12T11:40:54.635Z,1.80
2023-04-12T11:42:58.778Z,1.80
2023-04-12T11:45:07.566Z,1.67
2023-04-12T11:47:16.798Z,1.93
2023-04-12T11:49:22.103Z,1.80
2023-04-12T11:51:29.305Z,1.77
2023-04-12T11:53:34.133Z,1.40
2023-04-12T11:55:37.496Z,1.77
2023-04-12T11:57:42.351Z,1.73
2023-04-12T11:59:46.922Z,1.83
2023-04-12T12:01:53.101Z,2.00
2023-04-12T12:06:00.825Z,2.27
2023-04-12T12:08:07.665Z,2.23
2023-04-12T12:10:14.752Z,1.97
2023-04-12T12:12:25.756Z,2.57
2023-04-12T12:14:30.808Z,1.60
2023-04-12T12:16:35.911Z,2.00
2023-04-12T12:18:42.111Z,1.80
2023-04-12T12:20:50.591Z,1.93
2023-04-12T12:22:54.408Z,1.90
2023-04-12T12:25:01.545Z,2.17
2023-04-12T12:27:05.171Z,2.20
2023-04-12T12:29:09.297Z,1.87
2023-04-12T12:31:15.873Z,1.93
2023-04-12T12:33:24.810Z,1.90
2023-04-12T12:35:36.550Z,1.63
2023-04-12T12:37:50.164Z,1.60
2023-04-12T12:40:13.932Z,2.40
2023-04-12T12:42:17.481Z,1.30
2023-04-12T12:44:20.853Z,2.10
2023-04-12T12:48:29.919Z,2.10
2023-04-12T12:50:35.475Z,2.23
2023-04-12T12:52:38.915Z,1.80
2023-04-12T12:54:42.444Z,2.67
2023-04-12T12:56:46.223Z,2.53
2023-04-12T12:58:49.607Z,1.80
2023-04-12T13:00:52.940Z,2.23
2023-04-12T13:02:58.560Z,2.33
2023-04-12T13:05:03.429Z,2.13
2023-04-12T13:07:07.008Z,1.97
2023-04-12T13:09:10.569Z,2.17
2023-04-12T13:11:15.318Z,1.70
2023-04-12T13:13:20.628Z,2.10
2023-04-12T13:15:27.123Z,2.20
2023-04-12T13:17:30.942Z,2.17
2023-04-12T13:19:36.129Z,1.80
2023-04-12T13:21:39.519Z,2.07
2023-04-12T13:23:43.053Z,2.53
2023-04-12T13:25:46.615Z,1.97
2023-04-12T13:27:50.238Z,2.70
2023-04-12T13:29:54.244Z,1.90
2023-04-12T13:31:57.848Z,2.33
2023-04-12T13:34:01.408Z,1.80
2023-04-12T13:36:07.261Z,2.10
2023-04-12T13:38:10.569Z,2.17
2023-04-12T13:40:16.199Z,2.83
2023-04-12T13:42:19.809Z,2.33
2023-04-12T13:44:23.215Z,1.87
2023-04-12T13:46:26.765Z,1.30
2023-04-12T13:48:30.276Z,2.13
2023-04-12T13:50:33.691Z,2.60
2023-04-12T13:52:38.707Z,1.53
2023-04-12T13:54:43.452Z,1.80
2023-04-12T13:56:46.768Z,2.30
2023-04-12T13:58:50.105Z,2.43
2023-04-12T14:00:56.192Z,2.00
2023-04-12T14:02:59.710Z,1.87
2023-04-12T14:05:03.619Z,1.80
2023-04-12T14:07:07.613Z,1.97
2023-04-12T14:09:23.801Z,2.10
2023-04-12T14:11:27.163Z,1.97
2023-04-12T14:13:30.707Z,1.80
2023-04-12T14:15:34.244Z,2.40
2023-04-12T14:17:37.907Z,1.73
2023-04-12T14:19:41.627Z,1.83
2023-04-12T14:21:44.946Z,1.70
2023-04-12T14:23:48.428Z,2.33
2023-04-12T14:25:54.524Z,2.33
2023-04-12T14:27:57.978Z,2.40
2023-04-12T14:30:01.611Z,2.23
2023-04-12T14:32:05.049Z,2.80
2023-04-12T14:34:08.972Z,1.70
2023-04-12T14:36:12.408Z,2.60
2023-04-12T14:38:16.059Z,2.30
2023-04-12T14:40:20.707Z,2.30
2023-04-12T14:42:25.708Z,2.40
2023-04-12T14:44:29.018Z,2.30
2023-04-12T14:46:32.855Z,2.40
2023-04-12T14:48:36.688Z,2.17
2023-04-12T14:50:40.203Z,2.30
2023-04-12T14:52:43.603Z,2.03
2023-04-12T14:54:47.094Z,2.03
2023-04-12T14:56:55.200Z,2.60
2023-04-12T14:59:01.014Z,2.63
2023-04-12T15:01:04.434Z,2.60
2023-04-12T15:03:08.744Z,2.40
2023-04-12T15:05:12.766Z,2.20
2023-04-12T15:07:16.746Z,2.60
2023-04-12T15:09:21.161Z,2.10
2023-04-12T15:11:27.520Z,2.30
2023-04-12T15:13:34.298Z,2.50
2023-04-12T15:15:39.585Z,2.60
2023-04-12T15:17:43.169Z,2.67
2023-04-12T15:19:46.651Z,2.20
2023-04-12T15:21:51.104Z,2.47
2023-04-12T15:23:54.643Z,2.70
2023-04-12T15:26:01.335Z,1.90
2023-04-12T15:28:05.039Z,2.23
2023-04-12T15:30:10.982Z,2.30
2023-04-12T15:32:16.442Z,2.17
2023-04-12T15:34:20.146Z,2.17
2023-04-12T15:36:33.613Z,2.00
2023-04-12T15:38:43.174Z,1.70
2023-04-12T15:40:46.751Z,1.90
2023-04-12T15:42:50.077Z,2.33
2023-04-12T15:44:53.487Z,2.80
2023-04-12T15:47:10.476Z,2.47
2023-04-12T15:49:16.739Z,2.57
2023-04-12T15:51:20.058Z,2.07
2023-04-12T15:53:24.808Z,2.60
2023-04-12T15:55:28.144Z,1.90
2023-04-12T15:57:31.963Z,2.17
2023-04-12T15:59:35.528Z,2.40
2023-04-12T16:01:40.047Z,1.70
2023-04-12T16:03:47.320Z,2.33
2023-04-12T16:05:54.777Z,2.10
2023-04-12T16:07:58.573Z,2.30
2023-04-12T16:10:03.500Z,2.37
2023-04-12T16:12:07.415Z,1.70
2023-04-12T16:14:11.090Z,2.10
2023-04-12T16:16:15.365Z,1.70
2023-04-12T16:18:18.974Z,1.47
2023-04-12T16:20:22.764Z,1.80
2023-04-12T16:22:27.604Z,1.80
2023-04-12T16:24:31.015Z,1.90
2023-04-12T16:26:34.806Z,2.10
2023-04-12T16:28:39.593Z,1.80
2023-04-12T16:30:42.871Z,2.57
2023-04-12T16:32:47.895Z,2.07
2023-04-12T16:34:52.597Z,2.07
2023-04-12T16:36:56.128Z,2.03
2023-04-12T16:39:05.629Z,1.67
2023-04-12T16:41:08.943Z,2.03
2023-04-12T16:43:12.187Z,2.07
2023-04-12T16:45:16.114Z,2.40
2023-04-12T16:47:20.187Z,2.10
2023-04-12T16:49:23.672Z,2.00
2023-04-12T16:51:27.201Z,2.13
2023-04-12T16:53:40.556Z,1.97
2023-04-12T16:55:47.364Z,1.70
2023-04-12T16:57:53.211Z,1.87
2023-04-12T16:59:57.265Z,2.30
2023-04-12T17:02:01.347Z,2.93
2023-04-12T17:04:05.008Z,3.80
2023-04-12T17:06:08.652Z,4.33
2023-04-12T17:08:11.947Z,4.23
2023-04-12T17:10:17.398Z,3.67
2023-04-12T17:12:22.347Z,2.80
2023-04-12T17:14:25.637Z,2.90
2023-04-12T17:16:29.252Z,3.70
2023-04-12T17:18:34.880Z,3.30
2023-04-12T17:20:39.056Z,3.70
2023-04-12T17:22:42.803Z,3.13
2023-04-12T17:24:46.363Z,3.07
2023-04-12T17:26:49.763Z,4.07
2023-04-12T17:28:55.113Z,5.90
2023-04-12T17:30:58.471Z,4.87
2023-04-12T17:33:02.231Z,4.53
2023-04-12T17:35:06.987Z,3.23
2023-04-12T17:37:10.380Z,2.40
2023-04-12T17:39:13.685Z,2.70
2023-04-12T17:41:17.078Z,3.30
2023-04-12T17:43:20.476Z,5.60
2023-04-12T17:45:25.507Z,8.83
2023-04-12T17:47:28.931Z,7.97
2023-04-12T17:49:32.173Z,6.13
2023-04-12T17:51:35.810Z,5.03
2023-04-12T17:53:39.159Z,4.80
2023-04-12T17:55:42.777Z,4.10
2023-04-12T17:57:46.253Z,4.33
2023-04-12T17:59:49.553Z,4.60
2023-04-12T18:01:54.382Z,5.77
2023-04-12T18:04:00.627Z,5.60
2023-04-12T18:06:04.474Z,6.00
2023-04-12T18:08:10.106Z,4.70
2023-04-12T18:10:19.639Z,4.77
2023-04-12T18:12:24.636Z,4.27
2023-04-12T18:14:28.609Z,4.97
2023-04-12T18:16:32.143Z,5.20
2023-04-12T18:18:37.022Z,3.97
2023-04-12T18:20:40.450Z,2.70
2023-04-12T18:22:44.716Z,3.80
2023-04-12T18:24:48.646Z,3.00
2023-04-12T18:26:52.242Z,3.40
2023-04-12T18:28:56.426Z,4.07
2023-04-12T18:31:00.046Z,3.63
2023-04-12T18:33:05.663Z,6.03
2023-04-12T18:35:10.930Z,3.40
2023-04-12T18:37:14.325Z,3.87
2023-04-12T18:39:17.761Z,4.50
2023-04-12T18:41:21.052Z,3.60
2023-04-12T18:43:24.545Z,3.90
2023-04-12T18:45:27.841Z,3.57
2023-04-12T18:47:31.175Z,3.23
2023-04-12T18:49:35.051Z,3.97
2023-04-12T18:51:39.662Z,3.90
2023-04-12T18:53:43.072Z,3.50
2023-04-12T18:55:48.420Z,3.40
2023-04-12T18:57:51.771Z,3.43
2023-04-12T18:59:55.063Z,4.57
2023-04-12T19:01:58.447Z,3.87
2023-04-12T19:04:04.723Z,4.00
2023-04-12T19:06:08.740Z,3.20
2023-04-12T19:08:14.102Z,3.97
2023-04-12T19:10:17.643Z,3.87
2023-04-12T19:12:21.681Z,2.70
2023-04-12T19:14:25.479Z,7.67
2023-04-12T19:16:28.905Z,10.17
2023-04-12T19:18:32.243Z,9.30
2023-04-12T19:20:35.914Z,6.97
2023-04-12T19:22:39.337Z,5.40
2023-04-12T19:24:44.228Z,4.00
2023-04-12T19:26:48.116Z,4.00
2023-04-12T19:28:52.605Z,3.27
2023-04-12T19:30:59.578Z,4.33
2023-04-12T19:33:02.998Z,8.77
2023-04-12T19:35:07.557Z,4.87
2023-04-12T19:37:11.361Z,3.00
2023-04-12T19:39:15.713Z,3.57
2023-04-12T19:41:21.894Z,2.17
2023-04-12T19:43:25.778Z,2.70
2023-04-12T19:45:29.490Z,2.53
2023-04-12T19:47:33.083Z,3.07
2023-04-12T19:49:37.386Z,2.97
2023-04-12T19:51:40.895Z,3.20
2023-04-12T19:53:46.313Z,3.70
2023-04-12T19:55:50.427Z,3.70
2023-04-12T19:57:58.325Z,5.20
2023-04-12T20:00:03.072Z,4.53
2023-04-12T20:02:06.949Z,2.87
2023-04-12T20:04:10.410Z,2.80
2023-04-12T20:06:14.050Z,3.33
2023-04-12T20:08:17.484Z,3.27
2023-04-12T20:10:20.929Z,3.93
2023-04-12T20:12:24.242Z,2.53
2023-04-12T20:14:29.320Z,3.20
2023-04-12T20:16:33.154Z,3.33
2023-04-12T20:18:36.817Z,2.93
2023-04-12T20:20:40.159Z,2.20
2023-04-12T20:22:45.990Z,2.40
2023-04-12T20:24:49.629Z,2.40
2023-04-12T20:26:53.578Z,2.60
2023-04-12T20:28:57.826Z,2.60
2023-04-12T20:31:03.006Z,3.80
2023-04-12T20:33:08.796Z,2.60
2023-04-12T20:35:13.222Z,2.87
2023-04-12T20:37:17.751Z,2.90
2023-04-12T20:39:20.946Z,2.80
2023-04-12T20:41:24.524Z,2.93
2023-04-12T20:43:28.306Z,3.72
2023-04-12T20:45:31.842Z,3.43
2023-04-12T20:47:38.236Z,3.28
2023-04-12T20:49:42.483Z,3.20
2023-04-12T20:51:46.898Z,2.85
2023-04-12T20:53:51.754Z,3.40
2023-04-12T20:55:55.665Z,4.17
2023-04-12T20:58:00.794Z,3.00
2023-04-12T21:00:13.161Z,3.17
2023-04-12T21:02:17.787Z,3.38
2023-04-12T21:04:22.647Z,3.50
2023-04-12T21:06:27.863Z,3.60
2023-04-12T21:08:33.849Z,3.97
2023-04-12T21:10:37.393Z,3.50
2023-04-12T21:12:41.101Z,3.73
2023-04-12T21:14:50.079Z,2.83
2023-04-12T21:16:54.361Z,3.40
2023-04-12T21:18:58.345Z,3.40
2023-04-12T21:21:03.807Z,3.40
2023-04-12T21:23:08.404Z,3.70
2023-04-12T21:25:14.078Z,3.20
2023-04-12T21:27:17.442Z,3.87
2023-04-12T21:29:20.839Z,3.00
2023-04-12T21:31:24.389Z,2.70
2023-04-12T21:33:27.969Z,3.73
2023-04-12T21:35:31.430Z,4.03
2023-04-12T21:37:37.189Z,3.60
2023-04-12T21:39:43.236Z,3.87
2023-04-12T21:41:46.733Z,5.17
2023-04-12T21:43:50.233Z,9.03
2023-04-12T21:45:54.793Z,9.10
2023-04-12T21:47:58.257Z,11.33
2023-04-12T21:50:01.722Z,9.83
2023-04-12T21:52:05.524Z,11.77
2023-04-12T21:54:10.346Z,9.68
2023-04-12T21:56:13.772Z,11.83
2023-04-12T21:58:17.473Z,12.90
2023-04-12T22:00:21.032Z,12.30
2023-04-12T22:02:24.570Z,19.03
2023-04-12T22:04:28.029Z,14.97
2023-04-12T22:06:31.578Z,14.17
2023-04-12T22:08:34.922Z,8.97
2023-04-12T22:10:40.456Z,6.23
2023-04-12T22:12:50.641Z,6.00
2023-04-12T22:14:54.341Z,7.28
2023-04-12T22:16:59.246Z,6.83
2023-04-12T22:19:02.626Z,7.03
2023-04-12T22:21:07.964Z,7.80
2023-04-12T22:23:11.378Z,8.27
2023-04-12T22:25:15.885Z,6.33
2023-04-12T22:27:20.500Z,8.03
2023-04-12T22:29:24.042Z,7.70
2023-04-12T22:31:27.727Z,8.37
2023-04-12T22:33:31.399Z,6.30
2023-04-12T22:35:37.319Z,4.83
2023-04-12T22:37:41.492Z,5.97
2023-04-12T22:39:45.180Z,5.45
2023-04-12T22:41:50.363Z,4.63
2023-04-12T22:44:01.547Z,13.00
2023-04-12T22:46:06.192Z,17.37
2023-04-12T22:48:14.814Z,5.73
2023-04-12T22:50:18.104Z,7.93
2023-04-12T22:52:21.897Z,5.93
2023-04-12T22:54:26.146Z,10.23
2023-04-12T22:56:30.314Z,9.10
2023-04-12T22:58:33.620Z,8.77
2023-04-12T23:00:39.433Z,16.40
2023-04-12T23:02:44.169Z,12.53
2023-04-12T23:04:49.276Z,8.17
2023-04-12T23:06:56.364Z,4.87
2023-04-12T23:09:00.279Z,4.77
2023-04-12T23:11:04.739Z,5.10
2023-04-12T23:13:08.485Z,3.90
2023-04-12T23:15:12.800Z,3.90
2023-04-12T23:17:19.767Z,3.33
2023-04-12T23:19:23.293Z,2.73
2023-04-12T23:21:26.760Z,3.10
2023-04-12T23:23:30.155Z,3.40
2023-04-12T23:25:41.752Z,3.20
2023-04-12T23:27:45.654Z,3.00
2023-04-12T23:29:50.244Z,2.57
2023-04-12T23:31:53.552Z,2.80
2023-04-12T23:33:58.835Z,3.13
2023-04-12T23:36:03.584Z,1.90
2023-04-12T23:38:07.007Z,2.80
2023-04-12T23:40:14.646Z,2.83
2023-04-12T23:42:18.094Z,2.07
2023-04-12T23:44:21.471Z,2.47
2023-04-12T23:46:24.950Z,2.47
2023-04-12T23:48:32.290Z,3.50
2023-04-12T23:50:37.106Z,2.40
2023-04-12T23:52:40.674Z,1.90
2023-04-12T23:54:43.984Z,3.50
2023-04-12T23:56:47.806Z,2.70
2023-04-12T23:58:51.178Z,2.50
